Pagrindinis puslapis
METAR-TAF:

METAR-TAF

Oro uostai :

Rionė, Danija

platuma: 55-04N, ilguma: 014-45E, Aukštis: 16 m

Dabartinis oras

Ataskaita buvo paskelbta 25 minutes, ne 20:50 UTC
Vėjas 7 kt iš Rytų
Temperatūra 16°C
Drėgmė 88%
Slėgis 1010 hPa
Matomumas 10 km arba daugiau

METAR: EKRN 162050Z AUTO 08007KT 9999 BKN077/// OVC100/// 16/14 Q1010

Laikas: 23:15 (21:15 UTC)

Prognozė

Ataskaita buvo paskelbta 1 valandą ir 1 minutes, ne 20:14 UTC
Prognozė galioja nuo 16 metu 21 UTC su 17 metu 06 UTC
Vėjas 12 kt iš Rytų/Pietryčių
Matomumas 10 km arba daugiau
Mažai debesys ne aukštis 2500 ft
Su prošvaistėmis ne aukštis 7000 ft
Laikinai
nuo 16 metu 21 UTC su 17 metu 03 UTC
Matomumas: 4000 m
Išsisklaidę debesys ne aukštis 2000 ft, Liūtiniai kamuoliniai debesys.
lietus,

TAF: EKRN 162014Z 1621/1706 12012KT 9999 FEW025 BKN070 TEMPO 1621/1703 4000 SHRA SCT020CB

Orai ataskaitas ir orų prognozės (METAR, TAF).

turimą stotys yra geltonos ir raudonos taškus žemėlapyje.

Perkelti pele per norėdami pamatyti stoties vardą.

Tada spustelėkite, norėdami matyti oro stebėjimo ir prognozės.

Norėdami pakeisti žemėlapį: spustelėkite ant žalios mygtukų su juodo kryžiaus žemyn,; žalią mygtuką su brūkšneliu, jei norite nutolinti; arba žalių rodyklių gretimoms žemėlapius.


METAR-TAF: